KDCA Airport (Ronald Reagan Washington National) Information

FAA: DCA - ICAO: KDCA

KDCA Airport Location

State Washington D.C.
County Arlington
City Washington D.C.
KDCA Airport is 3 miles south of Washington D.C., DC.
Latitude 38-51-05.2000N
Longitude 077-02-15.8000W
Elevation 14ft

KDCA Airport METARs

METAR KDCA 240752Z 33006KT 10SM FEW060 14/09 A3004 RMK AO2 SLP172 T01390094
Altimeter 30.04"
Temperature 13.9°C (57.0°F)
Wind 330° at 6KT
Clouds few at 6,000ft
Visibility 10.0mi
Time observed: 2021-09-24T07:52:00Z

KDCA Airport Details

Status Operational
Activation March 1941
Ownership Public
Usage Public
Chart WASHINGTON
ATC on-site Yes
Beacon schedule sunset-sunrise
Beacon color clear green

KDCA Airport Contacts

Owner METRO WASH ARPT AUTHORITY
Owner address 1 AVIATION CIRCLE, WASHINGTON, DC 20001-6000
Owner phone 703-417-8600
Manager JEFFREY KREBS
Manager address 4755 OGLETOWN-STANTON ROAD, NEWARK, DE 19718
Manager phone (302) 733-3788

KDCA Airport (Ronald Reagan Washington National) Radio Frequencies

KDCA (Airport) Radio Frequencies

UNICOM 122.95
Common traffic advisory frequency (CTAF) N/A